createdAt,value
2022-08-22T00:03:10.728Z,69.99
2022-08-22T00:03:27.005Z,92.58
2022-08-22T00:04:26.868Z,92.79
2022-08-22T00:05:26.801Z,92.72
2022-08-22T00:06:26.910Z,93.03
2022-08-22T00:07:26.748Z,92.83
2022-08-22T00:08:26.830Z,92.52
2022-08-22T00:09:26.748Z,92.52
2022-08-22T00:10:26.742Z,92.72
2022-08-22T00:11:26.743Z,93.03
2022-08-22T00:12:26.745Z,93.13
2022-08-22T00:13:26.707Z,93.13
2022-08-22T00:14:26.704Z,93.33
2022-08-22T00:15:42.499Z,93.43
2022-08-22T00:16:26.698Z,93.63
2022-08-22T00:17:26.667Z,93.74
2022-08-22T00:18:26.918Z,93.63
2022-08-22T00:19:26.662Z,93.84
2022-08-22T00:20:28.038Z,93.99
2022-08-22T00:21:26.709Z,94.09
2022-08-22T00:22:26.584Z,94.29
2022-08-22T00:23:26.662Z,94.19
2022-08-22T00:24:26.603Z,93.99
2022-08-22T00:25:26.589Z,93.88
2022-08-22T00:26:26.623Z,93.88
2022-08-22T00:27:26.579Z,93.99
2022-08-22T00:28:26.597Z,94.19
2022-08-22T00:29:26.579Z,94.09
2022-08-22T00:30:26.512Z,93.99
2022-08-22T00:31:26.546Z,94.19
2022-08-22T00:32:26.563Z,94.29
2022-08-22T00:33:26.541Z,94.49
2022-08-22T00:34:26.579Z,94.70
2022-08-22T00:35:26.542Z,94.74
2022-08-22T00:36:26.592Z,94.64
2022-08-22T00:37:26.462Z,94.64
2022-08-22T00:38:26.539Z,94.74
2022-08-22T00:39:26.442Z,94.64
2022-08-22T00:40:26.469Z,94.54
2022-08-22T00:41:26.542Z,94.54
2022-08-22T00:42:32.078Z,94.64
2022-08-22T00:43:26.481Z,94.74
2022-08-22T00:44:26.427Z,94.84
2022-08-22T00:45:26.419Z,94.74
2022-08-22T00:46:26.544Z,94.94
2022-08-22T00:47:26.387Z,95.04
2022-08-22T00:48:26.390Z,95.04
2022-08-22T00:49:29.049Z,95.04
2022-08-22T00:50:26.352Z,95.14
2022-08-22T00:51:26.552Z,95.14
2022-08-22T00:52:26.343Z,95.19
2022-08-22T00:53:26.391Z,95.19
2022-08-22T00:54:26.323Z,95.19
2022-08-22T00:55:26.342Z,95.19
2022-08-22T00:56:26.477Z,95.29
2022-08-22T00:57:26.301Z,95.29
2022-08-22T00:58:26.320Z,95.39
2022-08-22T00:59:26.262Z,95.39
2022-08-22T01:00:26.268Z,95.59
2022-08-22T01:01:26.322Z,96.10
2022-08-22T01:02:26.231Z,96.20
2022-08-22T01:03:26.191Z,95.90
2022-08-22T01:04:26.338Z,96.00
2022-08-22T01:05:26.262Z,96.20
2022-08-22T01:06:26.229Z,96.20
2022-08-22T01:07:30.542Z,96.00
2022-08-22T01:08:26.177Z,95.90
2022-08-22T01:09:26.108Z,95.90
2022-08-22T01:10:26.174Z,95.90
2022-08-22T01:11:26.165Z,96.00
2022-08-22T01:12:26.248Z,96.00
2022-08-22T01:13:26.070Z,95.79
2022-08-22T01:14:34.426Z,95.59
2022-08-22T01:15:26.092Z,95.59
2022-08-22T01:16:26.311Z,95.59
2022-08-22T01:17:26.257Z,95.79
2022-08-22T01:18:26.119Z,96.00
2022-08-22T01:19:26.121Z,96.10
2022-08-22T01:20:26.196Z,96.51
2022-08-22T01:21:26.067Z,96.71
2022-08-22T01:22:26.045Z,96.61
2022-08-22T01:23:26.051Z,96.51
2022-08-22T01:24:26.000Z,96.51
2022-08-22T01:25:26.371Z,96.51
2022-08-22T01:26:26.151Z,96.41
2022-08-22T01:27:26.110Z,96.66
2022-08-22T01:28:25.963Z,96.61
2022-08-22T01:29:27.713Z,96.51
2022-08-22T01:30:26.112Z,96.45
2022-08-22T01:31:25.976Z,96.45
2022-08-22T01:32:25.971Z,96.35
2022-08-22T01:33:25.896Z,96.35
2022-08-22T01:34:25.990Z,96.25
2022-08-22T01:35:25.964Z,96.15
2022-08-22T01:36:25.868Z,96.35
2022-08-22T01:37:26.000Z,96.45
2022-08-22T01:38:26.071Z,96.75
2022-08-22T01:39:25.848Z,96.75
2022-08-22T01:40:25.808Z,96.75
2022-08-22T01:41:25.998Z,96.86
2022-08-22T01:42:25.912Z,96.86
2022-08-22T01:43:51.436Z,96.86
2022-08-22T01:44:25.797Z,97.06
2022-08-22T01:45:25.767Z,97.06
2022-08-22T01:46:25.955Z,96.86
2022-08-22T01:47:25.978Z,96.75
2022-08-22T01:48:25.780Z,96.86
2022-08-22T01:49:25.738Z,97.06
2022-08-22T01:50:25.716Z,96.96
2022-08-22T01:51:25.689Z,96.86
2022-08-22T01:52:25.688Z,96.96
2022-08-22T01:53:25.683Z,96.86
2022-08-22T01:54:25.697Z,96.75
2022-08-22T01:55:25.877Z,96.75
2022-08-22T01:56:25.640Z,96.86
2022-08-22T01:57:25.619Z,97.06
2022-08-22T01:58:25.635Z,97.06
2022-08-22T01:59:25.605Z,97.06
2022-08-22T02:00:35.367Z,97.16
2022-08-22T02:01:25.651Z,97.36
2022-08-22T02:02:25.609Z,97.26
2022-08-22T02:03:25.667Z,97.36
2022-08-22T02:04:25.630Z,97.36
2022-08-22T02:05:25.545Z,97.26
2022-08-22T02:06:25.535Z,97.26
2022-08-22T02:07:31.572Z,97.36
2022-08-22T02:08:25.557Z,97.36
2022-08-22T02:09:25.532Z,97.26
2022-08-22T02:10:25.559Z,97.41
2022-08-22T02:11:25.555Z,97.41
2022-08-22T02:12:25.518Z,97.41
2022-08-22T02:13:25.510Z,97.41
2022-08-22T02:14:25.483Z,97.41
2022-08-22T02:15:25.475Z,97.41
2022-08-22T02:16:25.442Z,97.41
2022-08-22T02:17:25.627Z,97.51
2022-08-22T02:18:25.444Z,97.61
2022-08-22T02:19:25.433Z,97.61
2022-08-22T02:20:25.411Z,97.51
2022-08-22T02:21:25.448Z,97.41
2022-08-22T02:22:25.421Z,97.31
2022-08-22T02:23:25.395Z,97.31
2022-08-22T02:24:25.388Z,97.41
2022-08-22T02:25:25.602Z,97.61
2022-08-22T02:26:25.384Z,97.71
2022-08-22T02:27:25.359Z,97.61
2022-08-22T02:28:25.532Z,97.81
2022-08-22T02:29:25.365Z,97.71
2022-08-22T02:30:25.434Z,97.71
2022-08-22T02:31:25.447Z,97.61
2022-08-22T02:32:25.292Z,97.61
2022-08-22T02:33:25.282Z,97.51
2022-08-22T02:34:25.323Z,97.61
2022-08-22T02:35:25.474Z,97.92
2022-08-22T02:36:25.260Z,97.92
2022-08-22T02:37:25.217Z,97.92
2022-08-22T02:38:25.412Z,97.81
2022-08-22T02:39:25.200Z,97.92
2022-08-22T02:40:25.421Z,97.76
2022-08-22T02:41:25.171Z,97.66
2022-08-22T02:42:25.293Z,97.66
2022-08-22T02:43:25.378Z,97.76
2022-08-22T02:44:25.167Z,97.76
2022-08-22T02:45:25.237Z,97.76
2022-08-22T02:46:25.348Z,97.86
2022-08-22T02:47:25.140Z,97.96
2022-08-22T02:48:27.695Z,98.07
2022-08-22T02:49:27.394Z,98.07
2022-08-22T02:50:25.136Z,98.07
2022-08-22T02:51:25.394Z,98.07
2022-08-22T02:52:25.104Z,98.27
2022-08-22T02:53:25.280Z,98.47
2022-08-22T02:54:25.081Z,98.57
2022-08-22T02:55:25.047Z,98.77
2022-08-22T02:56:25.276Z,98.77
2022-08-22T02:57:26.249Z,98.68
2022-08-22T02:58:25.043Z,98.57
2022-08-22T02:59:25.086Z,98.57
2022-08-22T03:00:32.297Z,98.57
2022-08-22T03:01:25.400Z,98.47
2022-08-22T03:02:25.195Z,98.27
2022-08-22T03:03:25.184Z,98.27
2022-08-22T03:04:25.027Z,98.47
2022-08-22T03:05:25.193Z,98.57
2022-08-22T03:06:25.086Z,98.77
2022-08-22T03:07:25.213Z,98.88
2022-08-22T03:08:25.173Z,98.97
2022-08-22T03:09:24.957Z,98.97
2022-08-22T03:10:24.934Z,98.77
2022-08-22T03:11:24.941Z,98.77
2022-08-22T03:12:25.318Z,98.88
2022-08-22T03:13:25.089Z,98.77
2022-08-22T03:14:24.884Z,98.68
2022-08-22T03:15:24.975Z,98.72
2022-08-22T03:16:25.040Z,98.72
2022-08-22T03:17:24.835Z,98.82
2022-08-22T03:18:24.867Z,98.82
2022-08-22T03:19:25.053Z,98.82
2022-08-22T03:20:24.935Z,98.82
2022-08-22T03:21:25.403Z,98.92
2022-08-22T03:22:24.909Z,98.92
2022-08-22T03:23:24.876Z,98.92
2022-08-22T03:24:24.886Z,99.02
2022-08-22T03:25:24.829Z,99.02
2022-08-22T03:26:24.898Z,98.92
2022-08-22T03:27:32.724Z,99.02
2022-08-22T03:28:24.739Z,99.13
2022-08-22T03:29:24.721Z,99.33
2022-08-22T03:30:24.701Z,99.33
2022-08-22T03:31:24.961Z,99.43
2022-08-22T03:32:24.753Z,99.43
2022-08-22T03:33:24.752Z,99.22
2022-08-22T03:34:24.636Z,99.22
2022-08-22T03:35:24.668Z,99.22
2022-08-22T03:36:24.700Z,99.33
2022-08-22T03:37:24.862Z,99.43
2022-08-22T03:38:24.639Z,99.43
2022-08-22T03:39:24.642Z,99.53
2022-08-22T03:40:24.757Z,99.63
2022-08-22T03:41:24.629Z,99.63
2022-08-22T03:42:24.660Z,99.63
2022-08-22T03:43:24.726Z,99.74
2022-08-22T03:44:24.597Z,99.84
2022-08-22T03:45:24.588Z,99.94
2022-08-22T03:46:24.550Z,99.99
2022-08-22T03:47:24.510Z,99.99
2022-08-22T03:48:24.719Z,99.99
2022-08-22T03:49:24.786Z,99.99
2022-08-22T03:50:24.510Z,99.99
2022-08-22T03:51:24.634Z,99.99
2022-08-22T03:52:24.514Z,99.99
2022-08-22T03:53:24.542Z,99.99
2022-08-22T03:54:24.465Z,99.99
2022-08-22T03:55:24.478Z,99.99
2022-08-22T03:56:24.477Z,99.99
2022-08-22T03:57:24.679Z,99.99
2022-08-22T03:58:27.836Z,99.99
2022-08-22T03:59:24.460Z,99.99
2022-08-22T04:00:24.431Z,99.99
2022-08-22T04:01:24.439Z,99.99
2022-08-22T04:02:31.449Z,99.99
2022-08-22T04:03:24.436Z,99.99
2022-08-22T04:04:24.383Z,99.99
2022-08-22T04:05:24.444Z,99.99
2022-08-22T04:06:24.354Z,99.99
2022-08-22T04:07:32.270Z,99.99
2022-08-22T04:08:26.405Z,99.99
2022-08-22T04:09:24.395Z,99.99
2022-08-22T04:10:24.509Z,99.99
2022-08-22T04:11:24.435Z,99.99
2022-08-22T04:12:24.366Z,99.99
2022-08-22T04:13:24.826Z,99.99
2022-08-22T04:14:24.387Z,99.99
2022-08-22T04:15:24.234Z,99.99
2022-08-22T04:16:24.249Z,99.99
2022-08-22T04:17:24.268Z,99.99
2022-08-22T04:18:24.495Z,99.99
2022-08-22T04:19:24.211Z,99.99
2022-08-22T04:20:24.615Z,99.99
2022-08-22T04:21:24.596Z,99.99
2022-08-22T04:22:24.170Z,99.99
2022-08-22T04:23:24.276Z,99.99
2022-08-22T04:24:24.184Z,99.99
2022-08-22T04:25:24.224Z,99.99
2022-08-22T04:26:24.183Z,99.99
2022-08-22T04:27:24.191Z,99.99
2022-08-22T04:28:24.179Z,99.99
2022-08-22T04:29:24.164Z,99.99
2022-08-22T04:30:24.199Z,99.99
2022-08-22T04:31:24.184Z,99.99
2022-08-22T04:32:24.136Z,99.99
2022-08-22T04:33:24.102Z,99.99
2022-08-22T04:34:24.105Z,99.99
2022-08-22T04:35:24.107Z,99.99
2022-08-22T04:36:24.038Z,99.99
2022-08-22T04:37:24.145Z,99.99
2022-08-22T04:38:24.068Z,99.99
2022-08-22T04:39:24.019Z,99.99
2022-08-22T04:40:24.070Z,99.99
2022-08-22T04:41:24.160Z,99.99
2022-08-22T04:42:33.135Z,99.99
2022-08-22T04:43:24.162Z,99.99
2022-08-22T04:44:24.033Z,99.99
2022-08-22T04:45:24.051Z,99.99
2022-08-22T04:46:23.941Z,99.99
2022-08-22T04:47:23.994Z,99.99
2022-08-22T04:48:23.924Z,99.99
2022-08-22T04:49:23.994Z,99.99
2022-08-22T04:50:23.912Z,99.99
2022-08-22T04:51:23.918Z,99.99
2022-08-22T04:52:24.083Z,99.99
2022-08-22T04:53:23.922Z,99.99
2022-08-22T04:54:23.938Z,99.99
2022-08-22T04:55:24.012Z,99.99
2022-08-22T04:56:23.926Z,99.99
2022-08-22T04:57:23.876Z,99.99
2022-08-22T04:58:23.883Z,99.99
2022-08-22T04:59:23.897Z,99.99
2022-08-22T05:00:23.857Z,99.99
2022-08-22T05:01:23.988Z,99.99
2022-08-22T05:02:23.801Z,99.99
2022-08-22T05:03:24.008Z,99.99
2022-08-22T05:04:23.930Z,99.99
2022-08-22T05:05:23.976Z,99.99
2022-08-22T05:06:23.850Z,99.99
2022-08-22T05:07:23.771Z,99.99
2022-08-22T05:08:23.849Z,99.99
2022-08-22T05:09:23.811Z,99.99
2022-08-22T05:10:23.728Z,99.99
2022-08-22T05:11:23.850Z,99.99
2022-08-22T05:12:23.723Z,99.99
2022-08-22T05:13:23.898Z,99.99
2022-08-22T05:14:23.894Z,99.99
2022-08-22T05:15:24.003Z,99.99
2022-08-22T05:16:23.730Z,99.99
2022-08-22T05:17:23.763Z,99.99
2022-08-22T05:18:23.842Z,99.99
2022-08-22T05:19:31.248Z,99.99
2022-08-22T05:20:23.641Z,99.99
2022-08-22T05:21:23.951Z,99.99
2022-08-22T05:22:23.740Z,99.99
2022-08-22T05:23:23.654Z,99.99
2022-08-22T05:24:23.566Z,99.99
2022-08-22T05:25:23.557Z,99.99
2022-08-22T05:26:23.611Z,99.99
2022-08-22T05:27:23.881Z,99.99
2022-08-22T05:28:23.642Z,99.99
2022-08-22T05:29:23.647Z,99.99
2022-08-22T05:30:23.692Z,99.99
2022-08-22T05:31:24.016Z,99.99
2022-08-22T05:32:23.491Z,99.99
2022-08-22T05:33:23.768Z,99.99
2022-08-22T05:34:23.438Z,99.99
2022-08-22T05:35:23.412Z,99.99
2022-08-22T05:36:23.406Z,99.99
2022-08-22T05:37:23.498Z,99.99
2022-08-22T05:38:23.441Z,99.97
2022-08-22T05:39:25.336Z,99.87
2022-08-22T05:40:23.517Z,99.77
2022-08-22T05:41:23.370Z,99.56
2022-08-22T05:42:23.362Z,99.56
2022-08-22T05:43:23.394Z,99.56
2022-08-22T05:44:23.362Z,99.21
2022-08-22T05:45:23.485Z,99.01
2022-08-22T05:46:27.091Z,99.01
2022-08-22T05:47:23.340Z,99.01
2022-08-22T05:48:23.424Z,99.01
2022-08-22T05:49:23.376Z,98.81
2022-08-22T05:50:23.530Z,98.66
2022-08-22T05:51:23.328Z,98.66
2022-08-22T05:52:23.329Z,98.76
2022-08-22T05:53:23.311Z,98.86
2022-08-22T05:54:33.811Z,98.86
2022-08-22T05:55:23.515Z,98.76
2022-08-22T05:56:23.271Z,98.86
2022-08-22T05:57:23.207Z,98.56
2022-08-22T05:58:23.411Z,98.16
2022-08-22T05:59:23.224Z,98.11
2022-08-22T06:00:23.210Z,98.01
2022-08-22T06:01:23.235Z,98.01
2022-08-22T06:02:23.379Z,97.91
2022-08-22T06:03:23.331Z,97.91
2022-08-22T06:04:23.352Z,97.80
2022-08-22T06:05:23.212Z,97.80
2022-08-22T06:06:23.497Z,97.40
2022-08-22T06:07:23.335Z,97.30
2022-08-22T06:08:23.184Z,97.30
2022-08-22T06:09:23.187Z,97.36
2022-08-22T06:10:23.127Z,97.05
2022-08-22T06:11:23.302Z,96.95
2022-08-22T06:12:23.072Z,96.95
2022-08-22T06:13:24.599Z,97.16
2022-08-22T06:14:24.859Z,97.05
2022-08-22T06:15:23.335Z,96.55
2022-08-22T06:16:23.123Z,96.14
2022-08-22T06:17:23.285Z,96.04
2022-08-22T06:18:23.212Z,96.30
2022-08-22T06:19:23.067Z,96.30
2022-08-22T06:20:22.995Z,96.30
2022-08-22T06:21:22.969Z,96.30
2022-08-22T06:22:23.008Z,95.90
2022-08-22T06:23:23.052Z,96.10
2022-08-22T06:24:23.070Z,96.15
2022-08-22T06:25:22.971Z,95.45
2022-08-22T06:26:22.917Z,94.84
2022-08-22T06:27:23.008Z,93.73
2022-08-22T06:28:22.912Z,93.93
2022-08-22T06:29:22.926Z,94.09
2022-08-22T06:30:22.884Z,94.39
2022-08-22T06:31:22.972Z,94.39
2022-08-22T06:32:30.739Z,94.19
2022-08-22T06:33:22.848Z,94.09
2022-08-22T06:34:22.872Z,93.74
2022-08-22T06:35:23.063Z,93.34
2022-08-22T06:36:22.859Z,92.23
2022-08-22T06:37:23.075Z,92.33
2022-08-22T06:38:22.792Z,92.59
2022-08-22T06:39:22.812Z,91.99
2022-08-22T06:40:23.437Z,91.49
2022-08-22T06:41:22.757Z,91.34
2022-08-22T06:42:22.759Z,90.23
2022-08-22T06:43:22.820Z,88.48
2022-08-22T06:44:22.819Z,88.58
2022-08-22T06:45:22.719Z,89.28
2022-08-22T06:46:22.724Z,89.64
2022-08-22T06:47:22.768Z,89.54
2022-08-22T06:48:22.751Z,89.24
2022-08-22T06:49:22.827Z,88.70
2022-08-22T06:50:22.732Z,88.29
2022-08-22T06:51:22.693Z,87.49
2022-08-22T06:52:22.658Z,87.65
2022-08-22T06:53:22.715Z,87.45
2022-08-22T06:54:22.664Z,85.74
2022-08-22T06:55:22.679Z,86.24
2022-08-22T06:56:22.636Z,86.10
2022-08-22T06:57:22.779Z,86.00
2022-08-22T06:58:22.655Z,84.80
2022-08-22T06:59:22.794Z,83.69
2022-08-22T07:00:22.618Z,84.80
2022-08-22T07:01:22.827Z,85.39
2022-08-22T07:02:22.615Z,83.85
2022-08-22T07:03:22.579Z,85.05
2022-08-22T07:04:22.606Z,84.85
2022-08-22T07:05:22.603Z,85.46
2022-08-22T07:06:22.765Z,84.71
2022-08-22T07:07:22.547Z,84.71
2022-08-22T07:08:22.681Z,82.20
2022-08-22T07:09:22.687Z,81.30
2022-08-22T07:10:22.527Z,82.40
2022-08-22T07:11:23.142Z,82.51
2022-08-22T07:12:22.498Z,81.90
2022-08-22T07:13:22.660Z,82.67
2022-08-22T07:14:22.968Z,81.87
2022-08-22T07:15:22.602Z,80.56
2022-08-22T07:16:22.571Z,81.76
2022-08-22T07:17:22.465Z,80.96
2022-08-22T07:18:22.696Z,80.36
2022-08-22T07:19:22.584Z,80.02
2022-08-22T07:20:22.570Z,80.62
2022-08-22T07:21:22.375Z,79.82
2022-08-22T07:22:22.485Z,80.52
2022-08-22T07:23:22.504Z,79.82
2022-08-22T07:24:22.649Z,81.32
2022-08-22T07:25:22.732Z,80.72
2022-08-22T07:26:22.456Z,81.42
2022-08-22T07:27:22.506Z,77.61
2022-08-22T07:28:22.497Z,79.12
2022-08-22T07:29:22.492Z,78.81
2022-08-22T07:30:27.422Z,80.32
2022-08-22T07:31:22.503Z,80.68
2022-08-22T07:32:22.323Z,80.68
2022-08-22T07:33:27.035Z,78.58
2022-08-22T07:34:22.564Z,78.58
2022-08-22T07:35:22.342Z,79.78
2022-08-22T07:36:23.210Z,80.44
2022-08-22T07:37:22.423Z,77.34
2022-08-22T07:38:22.208Z,78.14
2022-08-22T07:39:22.238Z,79.34
2022-08-22T07:40:22.303Z,76.64
2022-08-22T07:41:22.385Z,76.94
2022-08-22T07:42:22.258Z,77.64
2022-08-22T07:43:22.209Z,77.64
2022-08-22T07:44:22.155Z,77.24
2022-08-22T07:45:22.203Z,78.91
2022-08-22T07:46:22.132Z,80.00
2022-08-22T07:47:26.472Z,79.60
2022-08-22T07:48:25.886Z,79.00
2022-08-22T07:49:22.426Z,78.36
2022-08-22T07:50:22.098Z,77.26
2022-08-22T07:51:22.240Z,78.27
2022-08-22T07:52:22.036Z,79.97
2022-08-22T07:53:22.635Z,78.77
2022-08-22T07:54:22.416Z,75.93
2022-08-22T07:55:22.046Z,76.63
2022-08-22T07:56:21.985Z,77.13
2022-08-22T07:57:22.310Z,76.93
2022-08-22T07:58:22.198Z,76.69
2022-08-22T07:59:21.988Z,77.69
2022-08-22T08:00:22.094Z,75.89
2022-08-22T08:01:22.296Z,74.19
2022-08-22T08:02:22.108Z,75.19
2022-08-22T08:03:22.234Z,75.85
2022-08-22T08:04:22.098Z,73.86
2022-08-22T08:05:22.006Z,76.06
2022-08-22T08:06:21.916Z,72.56
2022-08-22T08:07:21.920Z,74.55
2022-08-22T08:08:22.037Z,74.46
2022-08-22T08:09:22.065Z,74.72
2022-08-22T08:10:22.199Z,75.82
2022-08-22T08:11:22.102Z,75.02
2022-08-22T08:12:21.899Z,72.69
2022-08-22T08:13:21.992Z,74.68
2022-08-22T08:14:21.871Z,72.69
2022-08-22T08:15:21.974Z,73.55
2022-08-22T08:16:21.984Z,73.55
2022-08-22T08:17:21.890Z,75.25
2022-08-22T08:18:21.946Z,74.02
2022-08-22T08:19:21.975Z,72.42
2022-08-22T08:20:21.778Z,71.72
2022-08-22T08:21:21.781Z,70.92
2022-08-22T08:22:21.991Z,72.49
2022-08-22T08:23:23.355Z,68.30
2022-08-22T08:24:21.857Z,67.83
2022-08-22T08:25:21.763Z,67.83
2022-08-22T08:26:21.729Z,70.72
2022-08-22T08:27:21.916Z,71.48
2022-08-22T08:28:21.946Z,70.69
2022-08-22T08:29:21.703Z,72.28
2022-08-22T08:30:21.673Z,69.06
2022-08-22T08:31:21.705Z,70.06
2022-08-22T08:32:21.679Z,69.66
2022-08-22T08:33:24.942Z,64.28
2022-08-22T08:34:21.861Z,67.50
2022-08-22T08:35:21.683Z,70.95
2022-08-22T08:36:21.675Z,71.55
2022-08-22T08:37:21.629Z,66.57
2022-08-22T08:38:21.709Z,67.66
2022-08-22T08:39:21.642Z,68.76
2022-08-22T08:40:21.644Z,66.24
2022-08-22T08:41:22.732Z,68.03
2022-08-22T08:42:21.830Z,68.53
2022-08-22T08:43:21.608Z,65.44
2022-08-22T08:44:21.872Z,67.63
2022-08-22T08:45:22.032Z,69.53
2022-08-22T08:46:21.492Z,68.23
2022-08-22T08:47:21.639Z,66.44
2022-08-22T08:48:21.522Z,68.03
2022-08-22T08:49:24.061Z,68.63
2022-08-22T08:50:21.581Z,69.73
2022-08-22T08:51:21.488Z,70.98
2022-08-22T08:52:21.471Z,66.91
2022-08-22T09:40:29.957Z,64.22
2022-08-22T09:40:34.819Z,57.07
2022-08-22T09:41:34.816Z,55.66
2022-08-22T09:42:34.903Z,54.86
2022-08-22T09:43:34.967Z,57.02
2022-08-22T09:44:35.061Z,54.14
2022-08-22T09:45:34.884Z,52.64
2022-08-22T09:46:37.139Z,55.21
2022-08-22T09:47:35.465Z,55.38
2022-08-22T09:48:34.900Z,52.22
2022-08-22T09:49:34.799Z,52.01
2022-08-22T09:50:34.856Z,54.17
2022-08-22T09:51:34.766Z,53.47
2022-08-22T09:52:36.931Z,49.62
2022-08-22T09:53:34.745Z,50.12
2022-08-22T09:54:35.158Z,50.88
2022-08-22T09:55:35.734Z,49.01
2022-08-22T09:56:34.711Z,49.01
2022-08-22T09:57:34.676Z,51.37
2022-08-22T09:58:38.850Z,56.29
2022-08-22T09:59:34.726Z,52.51
2022-08-22T10:00:34.683Z,51.40
2022-08-22T10:01:34.915Z,47.23
2022-08-22T10:02:34.642Z,46.94
2022-08-22T10:03:34.813Z,52.63
2022-08-22T10:04:34.674Z,45.21
2022-08-22T10:05:43.819Z,49.33
2022-08-22T10:06:34.763Z,50.29
2022-08-22T10:07:34.634Z,52.14
2022-08-22T10:08:34.698Z,49.95
2022-08-22T10:09:34.564Z,45.03
2022-08-22T10:10:34.842Z,50.93
2022-08-22T10:11:34.661Z,48.15
2022-08-22T10:12:36.099Z,48.15
2022-08-22T10:13:34.614Z,43.90
2022-08-22T10:14:34.663Z,40.29
2022-08-22T10:15:34.490Z,46.88
2022-08-22T10:16:34.708Z,44.32
2022-08-22T10:17:34.705Z,45.28
2022-08-22T10:18:34.568Z,41.94
2022-08-22T10:19:34.460Z,44.52
2022-08-22T10:20:34.472Z,43.14
2022-08-22T10:21:34.515Z,41.47
2022-08-22T10:22:34.452Z,41.39
2022-08-22T10:23:34.484Z,41.39
2022-08-22T10:24:36.044Z,41.08
2022-08-22T10:25:34.754Z,46.95
2022-08-22T10:26:38.661Z,44.20
2022-08-22T10:27:34.661Z,42.41
2022-08-22T10:28:34.519Z,43.37
2022-08-22T10:29:34.488Z,42.37
2022-08-22T10:30:34.683Z,40.48
2022-08-22T10:31:34.476Z,37.65
2022-08-22T10:32:34.365Z,42.91
2022-08-22T10:33:34.405Z,40.84
2022-08-22T10:34:34.331Z,41.33
2022-08-22T10:35:34.476Z,42.97
2022-08-22T10:36:34.312Z,43.05
2022-08-22T10:37:34.313Z,40.27
2022-08-22T10:38:34.374Z,37.71
2022-08-22T10:39:34.318Z,42.30
2022-08-22T10:40:34.288Z,40.45
2022-08-22T10:41:34.841Z,41.72
2022-08-22T10:42:35.718Z,41.03
2022-08-22T10:43:34.335Z,41.82
2022-08-22T10:44:34.820Z,41.93
2022-08-22T10:45:35.851Z,41.93
2022-08-22T10:46:34.436Z,39.14
2022-08-22T10:47:34.432Z,41.78
2022-08-22T10:48:34.234Z,39.37
2022-08-22T10:49:34.294Z,40.19
2022-08-22T10:50:34.298Z,42.15
2022-08-22T10:51:34.185Z,40.66
2022-08-22T10:52:34.203Z,42.70
2022-08-22T10:53:35.053Z,40.14
2022-08-22T10:54:34.234Z,39.27
2022-08-22T10:55:34.200Z,37.04
2022-08-22T10:56:34.177Z,40.88
2022-08-22T10:57:34.272Z,40.90
2022-08-22T10:58:34.124Z,39.66
2022-08-22T10:59:34.257Z,45.97
2022-08-22T11:00:34.159Z,44.34
2022-08-22T11:01:37.477Z,44.83
2022-08-22T11:02:34.109Z,48.30
2022-08-22T11:03:34.194Z,44.09
2022-08-22T11:04:34.032Z,42.93
2022-08-22T11:05:34.145Z,46.50
2022-08-22T11:06:33.988Z,44.74
2022-08-22T11:07:34.066Z,42.89
2022-08-22T11:08:34.774Z,45.08
2022-08-22T11:09:36.936Z,45.97
2022-08-22T11:10:34.797Z,47.85
2022-08-22T11:11:34.101Z,44.39
2022-08-22T11:12:35.247Z,46.47
2022-08-22T11:13:34.224Z,45.01
2022-08-22T11:14:34.111Z,47.47
2022-08-22T11:15:34.970Z,52.11
2022-08-22T11:16:36.609Z,51.72
2022-08-22T11:17:40.756Z,49.35
2022-08-22T11:18:34.228Z,50.51
2022-08-22T11:19:34.053Z,51.50
2022-08-22T11:20:34.028Z,52.19
2022-08-22T11:21:34.083Z,47.85
2022-08-22T11:22:34.181Z,46.76
2022-08-22T11:23:34.003Z,45.38
2022-08-22T11:24:35.549Z,45.87
2022-08-22T11:25:38.615Z,46.48
2022-08-22T11:26:41.381Z,45.89
2022-08-22T11:27:37.908Z,47.87
2022-08-22T11:28:33.972Z,46.19
2022-08-22T11:29:34.076Z,46.59
2022-08-22T11:30:36.268Z,46.39
2022-08-22T11:31:36.558Z,45.79
2022-08-22T11:32:33.879Z,47.97
2022-08-22T11:33:47.283Z,47.69
2022-08-22T11:34:33.825Z,46.01
2022-08-22T11:35:33.833Z,47.40
2022-08-22T11:36:34.016Z,48.88
2022-08-22T11:37:43.431Z,49.57
2022-08-22T11:38:33.759Z,46.33
2022-08-22T11:39:33.742Z,47.81
2022-08-22T11:40:33.910Z,46.33
2022-08-22T11:41:33.702Z,48.51
2022-08-22T11:42:33.864Z,52.56
2022-08-22T11:43:33.744Z,49.20
2022-08-22T11:44:34.555Z,47.62
2022-08-22T11:45:33.684Z,46.73
2022-08-22T11:46:33.844Z,48.80
2022-08-22T11:47:33.831Z,45.86
2022-08-22T11:48:33.742Z,46.85
2022-08-22T11:49:33.651Z,48.14
2022-08-22T11:50:33.645Z,50.61
2022-08-22T11:51:34.287Z,50.31
2022-08-22T11:52:33.658Z,46.66
2022-08-22T11:53:33.873Z,47.15
2022-08-22T11:54:33.581Z,47.15
2022-08-22T11:55:34.568Z,49.94
2022-08-22T11:56:33.939Z,49.54
2022-08-22T11:57:33.557Z,49.25
2022-08-22T11:58:33.553Z,50.81
2022-08-22T11:59:33.598Z,50.51
2022-08-22T12:00:33.784Z,48.14
2022-08-22T12:01:34.151Z,50.90
2022-08-22T12:02:33.629Z,47.54
2022-08-22T12:03:33.994Z,48.03
2022-08-22T12:04:33.799Z,49.13
2022-08-22T12:05:33.597Z,54.66
2022-08-22T12:06:34.718Z,49.52
2022-08-22T12:07:33.498Z,47.74
2022-08-22T12:08:33.512Z,50.31
2022-08-22T12:09:33.735Z,47.77
2022-08-22T12:10:33.453Z,48.36
2022-08-22T12:11:33.444Z,48.16
2022-08-22T12:12:33.426Z,49.94
2022-08-22T12:13:35.206Z,51.52
2022-08-22T12:14:33.540Z,48.95
2022-08-22T12:15:33.622Z,48.16
2022-08-22T12:16:33.381Z,50.24
2022-08-22T12:17:55.188Z,49.91
2022-08-22T12:18:33.386Z,44.90
2022-08-22T12:19:33.376Z,45.39
2022-08-22T12:20:33.379Z,52.09
2022-08-22T12:21:33.947Z,50.01
2022-08-22T12:22:33.796Z,49.79
2022-08-22T12:23:43.383Z,53.55
2022-08-22T12:24:33.309Z,51.05
2022-08-22T12:25:33.371Z,47.69
2022-08-22T12:26:33.274Z,47.99
2022-08-22T12:27:34.095Z,47.28
2022-08-22T12:28:33.347Z,45.20
2022-08-22T12:29:39.878Z,48.24
2022-08-22T12:30:33.288Z,49.90
2022-08-22T12:31:33.215Z,50.36
2022-08-22T12:32:34.058Z,45.71
2022-08-22T12:33:33.290Z,44.62
2022-08-22T12:34:33.332Z,46.37
2022-08-22T12:35:33.223Z,44.70
2022-08-22T12:36:33.442Z,44.48
2022-08-22T12:37:35.649Z,44.98
2022-08-22T12:38:37.407Z,45.64
2022-08-22T12:39:33.244Z,43.08
2022-08-22T12:40:36.353Z,43.01
2022-08-22T12:41:35.114Z,44.58
2022-08-22T12:42:33.158Z,44.38
2022-08-22T12:43:33.346Z,44.88
2022-08-22T12:44:33.279Z,43.20
2022-08-22T12:45:33.240Z,45.84
2022-08-22T12:46:33.179Z,45.25
2022-08-22T12:47:34.402Z,45.15
2022-08-22T12:48:33.123Z,43.38
2022-08-22T12:49:33.081Z,44.66
2022-08-22T12:50:33.067Z,43.97
2022-08-22T12:51:33.117Z,43.65
2022-08-22T12:52:33.211Z,42.67
2022-08-22T12:53:33.037Z,43.65
2022-08-22T12:54:33.384Z,41.90
2022-08-22T12:55:33.242Z,41.93
2022-08-22T12:56:33.004Z,44.19
2022-08-22T12:57:33.092Z,49.43
2022-08-22T12:58:34.119Z,47.46
2022-08-22T12:59:33.015Z,46.94
2022-08-22T13:00:33.022Z,45.47
2022-08-22T13:01:33.849Z,44.29
2022-08-22T13:02:32.975Z,44.70
2022-08-22T13:03:33.176Z,44.70
2022-08-22T13:04:34.226Z,43.71
2022-08-22T13:05:40.696Z,43.03
2022-08-22T13:06:32.988Z,46.79
2022-08-22T13:07:32.971Z,46.99
2022-08-22T13:08:33.168Z,47.19
2022-08-22T13:09:33.076Z,45.41
2022-08-22T13:10:33.047Z,45.61
2022-08-22T13:11:32.984Z,46.47
2022-08-22T13:12:32.924Z,48.54
2022-08-22T13:13:37.214Z,45.17
2022-08-22T13:14:32.920Z,43.28
2022-08-22T13:15:32.926Z,42.28
2022-08-22T13:16:33.078Z,43.33
2022-08-22T13:17:32.841Z,44.20
2022-08-22T13:18:33.205Z,43.71
2022-08-22T13:19:33.174Z,44.77
2022-08-22T13:20:33.044Z,41.53
2022-08-22T13:21:36.200Z,40.74
2022-08-22T13:22:32.836Z,41.71
2022-08-22T13:23:32.878Z,42.39
2022-08-22T13:24:38.453Z,41.00
2022-08-22T13:25:32.878Z,40.88
2022-08-22T13:26:35.770Z,43.21
2022-08-22T13:27:32.845Z,40.86
2022-08-22T13:28:32.838Z,41.62
2022-08-22T13:29:39.534Z,41.13
2022-08-22T13:30:32.881Z,38.98
2022-08-22T13:31:32.686Z,41.82
2022-08-22T13:32:32.897Z,44.17
2022-08-22T13:33:32.656Z,38.49
2022-08-22T13:34:38.427Z,41.84
2022-08-22T13:35:32.828Z,40.48
2022-08-22T13:36:32.994Z,39.23
2022-08-22T13:37:32.655Z,40.16
2022-08-22T13:38:32.642Z,42.24
2022-08-22T13:39:32.920Z,43.33
2022-08-22T13:40:33.022Z,43.73